Terminal Aerodrome Forecast
Issued by NWS Upton, NY

Home | Current Version | Previous Version | Text Only | Print | Product List | Glossary On
Versions: 1 2 3 4 5 6 7 8 9 10 11 12 13 14 15 16 17 18 19 20 21 22 23 24 25 26 27 28 29 30
000
FTUS41 KOKX 201900 AAA
TAFJFK
TAF AMD
KJFK 201932Z 2020/2124 16015G21KT P6SM SCT025 SCT090
     FM210300 14011KT P6SM BKN025 BKN070
     FM210700 16006KT 6SM BR BKN015
     FM211500 15008KT P6SM SCT015 BKN035
     FM211900 16008KT P6SM SCT250=

USA.gov is the U.S. government's official web portal to all federal, state and local government web resources and services.